Bookmark and Share
Track history (hours):
 

Normand Subsea

Last reported at 2014-Apr-12 07:03 UTC. Time now 2014-Apr-20 18:56 UTC.
Position N 58°37' W 003°32'.
Warning: this ship's position is 8 days out of date.

Length 113 m; draft 8 m.

Type: Other ship. MMSI: 235074949.

NotesDate/timePositionNaut miles runAvg speedWind from/ knotsBaromVisibWave heightAir tempDewpointWater temp
2014-Apr-12 07:03N 58°37' W 003°32'5 0.7
2014-Apr-12 00:20N 58°40' W 003°27'911.5
2014-Apr-11 23:34N 58°43' W 003°10'1010.2
2014-Apr-11 22:33N 58°37' W 002°54'10 9.7
2014-Apr-11 21:33N 58°29' W 002°44'4810.7
2014-Apr-11 17:04N 57°48' W 001°56'711.7
2014-Apr-11 16:25N 57°41' W 001°49'1012.0
2014-Apr-11 15:34N 57°31' W 001°44'2 1.8
2014-Apr-11 14:34N 57°30' W 001°47'0 0.0
2014-Apr-11 13:34N 57°30' W 001°47'0 0.0
2014-Apr-11 12:34N 57°30' W 001°47'0 0.0
2014-Apr-11 11:34N 57°30' W 001°47'0 0.0
2014-Apr-11 10:34N 57°30' W 001°47'0 0.0
2014-Apr-11 09:34N 57°30' W 001°47'0 0.0
2014-Apr-11 08:34N 57°30' W 001°47'0 0.0
2014-Apr-11 07:34N 57°30' W 001°47'0 0.0
2014-Apr-11 06:34N 57°30' W 001°47'0 0.0
2014-Apr-11 05:34N 57°30' W 001°47'0 0.0
2014-Apr-11 04:34N 57°30' W 001°47'0 0.0
2014-Apr-11 03:34N 57°30' W 001°47'0 0.0
2014-Apr-11 02:34N 57°30' W 001°47'0 0.0
2014-Apr-11 01:34N 57°30' W 001°47'0 0.0
2014-Apr-11 00:34N 57°30' W 001°47'0 0.0
2014-Apr-10 23:33N 57°30' W 001°47'0 0.0
2014-Apr-10 22:33N 57°30' W 001°47'0 0.0
2014-Apr-10 21:33N 57°30' W 001°47'0 0.0
2014-Apr-10 20:33N 57°30' W 001°47'0 0.0
2014-Apr-10 19:33N 57°30' W 001°47'0 0.0
2014-Apr-10 18:33N 57°30' W 001°47'0 0.0
2014-Apr-10 17:33N 57°30' W 001°47'0 0.0
2014-Apr-10 16:33N 57°30' W 001°47'0 0.0
2014-Apr-10 15:33N 57°30' W 001°47'0 0.0
2014-Apr-10 14:33N 57°30' W 001°47'0 0.0
2014-Apr-10 13:33N 57°30' W 001°47'0 0.0
2014-Apr-10 12:33N 57°30' W 001°47'0 0.0
2014-Apr-10 11:33N 57°30' W 001°47'0 0.0
2014-Apr-10 10:33N 57°30' W 001°47'1 1.5
2014-Apr-10 09:33N 57°29' W 001°45'8 7.5
2014-Apr-10 08:33N 57°35' W 001°37'1211.7
2014-Apr-10 07:33N 57°46' W 001°27'  

Dump ship's entire track history

sailing weather and tide predictions

Normand Subsea — 2CQP8 — position and weather